Time;durP1;ratioP1;P1;durP2;ratioP2;P2;SDS_P1;SDS_P2;PMS_P1;PMS_P2;Temp;Humidity;BMP_temperature;BMP_pressure;BME280_temperature;BME280_humidity;BME280_pressure;Samples;Min_cycle;Max_cycle;Signal;HPM_P1;HPM_P2
2021/06/30 00:01:34;;;;;;;35.13;31.63;;;;;;;18.42;100.00;99985.81;5060907;28;20055;-73
2021/06/30 00:04:01;;;;;;;33.83;30.25;;;;;;;18.40;100.00;99993.94;5039417;28;20052;-71
2021/06/30 00:06:32;;;;;;;34.35;31.25;;;;;;;18.35;100.00;99979.44;5053343;28;20050;-75
2021/06/30 00:09:05;;;;;;;32.83;29.75;;;;;;;18.42;100.00;99975.16;5055779;28;20490;-73
2021/06/30 00:11:32;;;;;;;37.35;31.02;;;;;;;18.40;100.00;99972.63;5072872;28;20032;-72
2021/06/30 00:14:05;;;;;;;33.10;29.70;;;;;;;18.43;100.00;99968.81;5068256;28;20049;-72
2021/06/30 00:16:37;;;;;;;34.38;30.70;;;;;;;18.44;100.00;99962.50;5058503;28;20048;-76
2021/06/30 00:19:10;;;;;;;32.75;29.40;;;;;;;18.43;100.00;99963.50;5064473;28;20052;-73
2021/06/30 00:21:43;;;;;;;33.35;29.83;;;;;;;18.51;100.00;99968.03;5063614;28;20049;-71
2021/06/30 00:24:15;;;;;;;33.47;30.05;;;;;;;18.55;100.00;99974.72;5067958;28;20059;-74
2021/06/30 00:26:47;;;;;;;36.60;33.00;;;;;;;18.55;100.00;99972.91;5060648;28;20054;-73
2021/06/30 00:29:20;;;;;;;34.40;31.10;;;;;;;18.58;100.00;99964.56;5074678;28;20047;-73
2021/06/30 00:31:52;;;;;;;33.55;30.27;;;;;;;18.56;100.00;99979.06;5060186;28;20057;-73
2021/06/30 00:34:24;;;;;;;32.72;28.63;;;;;;;18.58;100.00;99979.75;5067740;28;20048;-73
2021/06/30 00:36:57;;;;;;;34.67;31.17;;;;;;;18.62;100.00;99970.44;5054610;28;20351;-72
2021/06/30 00:39:29;;;;;;;32.17;29.20;;;;;;;18.68;100.00;99972.47;5074954;28;20520;-74
2021/06/30 00:42:01;;;;;;;31.25;28.10;;;;;;;18.73;100.00;99970.19;5065369;28;20140;-73
2021/06/30 00:44:34;;;;;;;31.38;28.38;;;;;;;18.70;100.00;99970.50;5049185;28;20503;-74
2021/06/30 00:47:06;;;;;;;33.75;30.33;;;;;;;18.68;100.00;99967.97;5071921;28;20060;-72
2021/06/30 00:49:39;;;;;;;29.52;26.63;;;;;;;18.75;100.00;99970.88;5064217;28;20052;-73
2021/06/30 00:52:11;;;;;;;27.80;24.90;;;;;;;19.06;100.00;99970.34;5042625;28;20053;-72
2021/06/30 00:54:44;;;;;;;27.98;25.30;;;;;;;19.13;100.00;99974.84;5053931;28;20040;-72
2021/06/30 00:57:18;;;;;;;28.38;25.58;;;;;;;19.22;100.00;99975.72;5065472;28;20072;-77
2021/06/30 00:59:50;;;;;;;28.17;25.58;;;;;;;19.33;100.00;99978.09;5051413;28;20049;-74
2021/06/30 01:02:23;;;;;;;29.05;26.35;;;;;;;19.43;100.00;99977.97;5054089;28;20522;-74
2021/06/30 01:04:55;;;;;;;28.33;25.35;;;;;;;19.19;100.00;99984.91;5073469;28;20040;-74
2021/06/30 01:07:27;;;;;;;29.98;27.15;;;;;;;19.06;100.00;99979.19;5078494;28;20096;-74
2021/06/30 01:10:00;;;;;;;30.50;27.10;;;;;;;19.01;100.00;99975.34;5068002;28;20130;-72
2021/06/30 01:12:32;;;;;;;32.13;28.75;;;;;;;19.00;100.00;99977.13;5042189;28;20080;-73
2021/06/30 01:15:11;;;;;;;33.60;30.20;;;;;;;18.88;100.00;99976.59;5063190;28;20045;-72
2021/06/30 01:17:45;;;;;;;35.88;31.92;;;;;;;18.78;100.00;99983.91;5067570;28;20049;-74
2021/06/30 01:20:20;;;;;;;36.42;32.88;;;;;;;18.82;100.00;99973.72;5062799;28;20041;-73
2021/06/30 01:23:08;;;;;;;34.67;31.27;;;;;;;18.82;100.00;99971.06;5062111;28;20060;-74
2021/06/30 01:25:41;;;;;;;33.55;30.02;;;;;;;18.95;100.00;99974.13;5062989;28;20044;-74
2021/06/30 01:28:14;;;;;;;33.35;29.80;;;;;;;19.10;100.00;99969.88;5048198;28;20048;-72
2021/06/30 01:30:49;;;;;;;32.55;28.88;;;;;;;19.07;100.00;99969.34;5062667;28;20063;-75
2021/06/30 01:33:23;;;;;;;33.15;29.98;;;;;;;19.18;100.00;99977.91;5053390;28;20048;-72
2021/06/30 01:35:55;;;;;;;34.80;31.30;;;;;;;19.05;100.00;99969.50;5050251;28;21020;-73
2021/06/30 01:38:29;;;;;;;37.00;33.30;;;;;;;18.87;100.00;99958.94;5065192;28;20055;-77
2021/06/30 01:41:02;;;;;;;37.92;34.10;;;;;;;18.72;100.00;99949.84;5069918;28;20048;-73
2021/06/30 01:43:34;;;;;;;41.67;37.58;;;;;;;18.59;100.00;99933.41;5076756;28;20439;-73
2021/06/30 01:46:01;;;;;;;39.72;35.83;;;;;;;18.59;100.00;99941.41;5048089;28;20429;-73
2021/06/30 01:48:34;;;;;;;42.88;38.35;;;;;;;18.55;100.00;99934.72;5060994;28;20044;-73
2021/06/30 01:51:06;;;;;;;42.13;37.55;;;;;;;18.61;100.00;99932.28;5061002;28;20056;-74
2021/06/30 01:53:38;;;;;;;42.67;38.33;;;;;;;18.72;100.00;99917.84;5068378;28;20051;-73
2021/06/30 01:56:05;;;;;;;39.92;36.10;;;;;;;18.67;100.00;99907.63;5061275;28;20047;-72
2021/06/30 01:58:38;;;;;;;42.85;38.42;;;;;;;18.65;100.00;99916.81;5069827;28;20060;-74
2021/06/30 02:01:10;;;;;;;38.63;34.78;;;;;;;18.80;100.00;99912.56;5071752;28;20053;-73
2021/06/30 02:03:42;;;;;;;48.85;41.15;;;;;;;18.80;100.00;99907.22;5056745;28;20058;-73
2021/06/30 02:06:14;;;;;;;42.72;37.20;;;;;;;18.72;100.00;99900.03;5071461;28;20044;-74
2021/06/30 02:08:47;;;;;;;49.40;42.22;;;;;;;18.62;100.00;99893.97;5056023;28;20490;-73
2021/06/30 02:11:19;;;;;;;42.88;38.42;;;;;;;18.67;100.00;99888.97;5062021;28;20051;-74
2021/06/30 02:13:52;;;;;;;41.33;36.92;;;;;;;18.67;100.00;99880.16;5062051;28;20489;-75
2021/06/30 02:16:24;;;;;;;40.28;36.15;;;;;;;18.67;100.00;99882.81;5048461;28;20143;-74
2021/06/30 02:19:01;;;;;;;40.03;36.08;;;;;;;18.67;100.00;99877.47;5075460;28;20057;-72
2021/06/30 02:21:34;;;;;;;41.90;37.83;;;;;;;18.69;100.00;99894.19;5065283;28;20488;-74
2021/06/30 02:24:07;;;;;;;42.58;38.47;;;;;;;18.77;100.00;99896.88;5046780;28;20072;-73
2021/06/30 02:26:39;;;;;;;42.83;38.53;;;;;;;18.72;100.00;99900.03;5060608;28;20052;-74
2021/06/30 02:29:11;;;;;;;42.72;38.22;;;;;;;18.65;100.00;99901.66;5060038;28;20155;-74
2021/06/30 02:31:44;;;;;;;40.03;36.00;;;;;;;18.69;100.00;99895.03;5026999;28;20051;-75
2021/06/30 02:34:16;;;;;;;46.03;41.17;;;;;;;18.62;100.00;99901.13;5082108;28;20100;-75
2021/06/30 02:36:48;;;;;;;44.55;39.95;;;;;;;18.60;100.00;99903.13;5071138;28;20116;-72
2021/06/30 02:39:20;;;;;;;49.42;44.50;;;;;;;18.63;100.00;99903.63;5062650;28;20043;-75
2021/06/30 02:41:53;;;;;;;45.08;40.63;;;;;;;18.68;100.00;99898.63;5068212;28;20132;-74
2021/06/30 02:44:25;;;;;;;44.67;40.40;;;;;;;18.75;100.00;99901.53;5057592;28;20049;-74
2021/06/30 02:46:57;;;;;;;46.08;41.25;;;;;;;18.71;100.00;99906.34;5025805;28;20049;-72
2021/06/30 02:49:30;;;;;;;44.63;39.78;;;;;;;18.74;100.00;99910.53;5038721;28;21161;-73
2021/06/30 02:52:02;;;;;;;45.00;40.38;;;;;;;18.76;100.00;99900.53;5050849;28;20049;-74
2021/06/30 02:54:35;;;;;;;46.90;42.00;;;;;;;18.80;100.00;99901.91;5058149;28;20048;-73
2021/06/30 02:57:07;;;;;;;45.45;40.97;;;;;;;18.65;100.00;99898.16;5058026;28;20640;-76
2021/06/30 02:59:39;;;;;;;46.90;41.95;;;;;;;18.61;100.00;99889.63;5063315;28;20536;-74
2021/06/30 03:02:12;;;;;;;44.53;39.97;;;;;;;18.68;100.00;99897.81;5056874;28;20056;-73
2021/06/30 03:04:44;;;;;;;48.55;41.75;;;;;;;18.68;100.00;99898.63;5059043;28;20636;-74
2021/06/30 03:07:16;;;;;;;42.03;37.85;;;;;;;18.78;100.00;99905.69;5058317;28;20455;-73
2021/06/30 03:09:48;;;;;;;44.78;39.97;;;;;;;18.80;100.00;99904.56;5061374;28;20504;-75
2021/06/30 03:12:21;;;;;;;41.75;37.60;;;;;;;18.77;100.00;99920.03;5053301;28;20048;-72
2021/06/30 03:14:53;;;;;;;45.42;40.63;;;;;;;18.78;100.00;99914.56;5075935;28;20052;-72
2021/06/30 03:17:25;;;;;;;42.95;38.55;;;;;;;18.90;100.00;99921.25;5024148;28;20053;-74
2021/06/30 03:19:57;;;;;;;42.38;38.03;;;;;;;18.85;100.00;99922.75;5067645;28;20496;-74
2021/06/30 03:22:30;;;;;;;39.63;35.45;;;;;;;18.92;100.00;99929.13;5073572;28;20101;-75
2021/06/30 03:25:02;;;;;;;41.00;36.70;;;;;;;18.87;100.00;99928.78;5067517;28;20067;-72
2021/06/30 03:27:35;;;;;;;39.05;34.95;;;;;;;18.88;100.00;99941.94;5070000;28;20045;-73
2021/06/30 03:30:11;;;;;;;38.97;34.70;;;;;;;18.93;100.00;99934.28;5075156;28;20090;-75
2021/06/30 03:32:43;;;;;;;39.45;35.38;;;;;;;18.96;100.00;99936.63;5051444;28;20136;-73
2021/06/30 03:35:15;;;;;;;39.42;35.45;;;;;;;18.91;100.00;99935.44;5072318;28;20044;-73
2021/06/30 03:37:47;;;;;;;44.47;38.80;;;;;;;18.93;100.00;99936.94;5065977;28;20074;-73
2021/06/30 03:40:19;;;;;;;39.05;34.92;;;;;;;18.83;100.00;99935.41;5066689;28;20044;-73
2021/06/30 03:42:52;;;;;;;44.22;39.60;;;;;;;18.92;100.00;99934.44;5042318;28;20070;-75
2021/06/30 03:45:24;;;;;;;43.10;38.92;;;;;;;18.85;100.00;99944.06;5062573;28;20412;-75
2021/06/30 03:47:56;;;;;;;41.17;36.92;;;;;;;18.83;100.00;99959.41;5045303;28;20051;-75
2021/06/30 03:50:28;;;;;;;36.28;32.88;;;;;;;18.72;100.00;99961.34;5075270;28;20048;-73
2021/06/30 03:53:01;;;;;;;37.10;33.53;;;;;;;18.70;100.00;99958.03;5064997;28;20057;-72
2021/06/30 03:55:33;;;;;;;37.35;33.75;;;;;;;18.75;100.00;99960.22;5074293;28;20041;-74
2021/06/30 03:58:05;;;;;;;35.78;32.22;;;;;;;18.82;100.00;99957.72;5058251;28;20063;-74
2021/06/30 04:00:37;;;;;;;34.40;30.83;;;;;;;18.66;100.00;99945.97;5070103;28;20046;-76
2021/06/30 04:03:10;;;;;;;30.30;27.15;;;;;;;18.79;100.00;99942.91;5067577;28;20048;-74
2021/06/30 04:05:44;;;;;;;35.22;31.73;;;;;;;18.65;100.00;99933.63;5077744;28;20163;-77
2021/06/30 04:08:16;;;;;;;32.83;29.40;;;;;;;18.73;100.00;99943.50;5069310;28;20215;-75
2021/06/30 04:10:49;;;;;;;31.08;28.13;;;;;;;18.63;100.00;99943.59;5059519;28;20364;-74
2021/06/30 04:13:21;;;;;;;36.58;32.92;;;;;;;18.86;100.00;99943.06;5062033;28;20058;-72
2021/06/30 04:15:53;;;;;;;35.42;32.13;;;;;;;18.78;100.00;99945.69;5067398;28;20057;-75
2021/06/30 04:18:25;;;;;;;31.50;27.95;;;;;;;18.78;100.00;99948.38;5048640;28;20407;-73
2021/06/30 04:20:58;;;;;;;30.45;27.52;;;;;;;18.92;100.00;99948.63;5063051;28;20049;-74
2021/06/30 04:23:31;;;;;;;31.10;28.15;;;;;;;18.91;100.00;99954.97;5058740;28;20085;-73
2021/06/30 04:26:03;;;;;;;36.08;32.58;;;;;;;18.88;100.00;99970.44;5044407;28;20057;-74
2021/06/30 04:28:35;;;;;;;36.28;32.83;;;;;;;18.72;100.00;99979.19;5068877;28;20052;-75
2021/06/30 04:31:08;;;;;;;38.90;34.25;;;;;;;18.60;100.00;99985.75;5046156;28;20052;-73
2021/06/30 04:33:40;;;;;;;40.65;34.97;;;;;;;18.45;100.00;99975.66;5064598;28;20052;-73
2021/06/30 04:36:13;;;;;;;42.55;37.33;;;;;;;18.38;100.00;99968.47;5068791;28;20140;-74
2021/06/30 04:38:45;;;;;;;35.00;31.30;;;;;;;18.45;100.00;99951.66;5069045;28;20058;-73
2021/06/30 04:41:17;;;;;;;39.40;35.03;;;;;;;18.53;100.00;99945.56;5066117;28;20439;-75
2021/06/30 04:43:49;;;;;;;36.83;32.90;;;;;;;18.41;100.00;99928.16;5056071;28;20056;-75
2021/06/30 04:46:22;;;;;;;38.05;34.08;;;;;;;18.44;100.00;99928.69;5067408;28;20059;-75
2021/06/30 04:48:54;;;;;;;36.55;32.78;;;;;;;18.42;100.00;99922.69;5071958;28;20045;-75
2021/06/30 04:51:26;;;;;;;37.42;33.72;;;;;;;18.42;100.00;99921.84;5069902;28;20045;-72
2021/06/30 04:53:58;;;;;;;39.08;35.03;;;;;;;18.36;100.00;99933.97;5082703;28;20583;-76
2021/06/30 04:56:39;;;;;;;40.65;36.38;;;;;;;18.39;100.00;99931.00;5070343;28;20052;-72
2021/06/30 04:59:11;;;;;;;38.20;34.50;;;;;;;18.48;100.00;99924.72;5064643;28;20091;-74
2021/06/30 05:01:44;;;;;;;38.67;34.65;;;;;;;18.56;100.00;99921.25;5067011;28;20040;-75
2021/06/30 05:04:18;;;;;;;42.30;34.45;;;;;;;18.46;100.00;99931.19;5068376;28;20035;-73
2021/06/30 05:06:55;;;;;;;32.60;29.40;;;;;;;18.27;100.00;99940.22;5066938;28;20040;-72
2021/06/30 05:09:28;;;;;;;40.17;32.08;;;;;;;18.41;100.00;99939.66;5068820;28;20076;-73
2021/06/30 05:12:00;;;;;;;37.80;30.98;;;;;;;18.48;100.00;99937.19;5065384;28;20517;-74
2021/06/30 05:14:32;;;;;;;34.28;30.60;;;;;;;18.37;100.00;99940.13;5070312;28;20052;-74
2021/06/30 05:17:05;;;;;;;32.08;27.95;;;;;;;18.39;100.00;99935.50;5056668;28;20068;-73
2021/06/30 05:19:37;;;;;;;43.20;29.85;;;;;;;18.38;100.00;99939.16;5059270;28;20077;-71
2021/06/30 05:22:10;;;;;;;31.73;28.58;;;;;;;18.36;100.00;99943.78;5065083;28;20048;-75
2021/06/30 05:24:42;;;;;;;29.80;26.70;;;;;;;18.42;100.00;99948.50;5067703;28;20049;-74
2021/06/30 05:27:14;;;;;;;30.77;27.42;;;;;;;18.38;100.00;99945.31;5060414;28;20057;-73
2021/06/30 05:29:47;;;;;;;27.80;25.00;;;;;;;18.41;100.00;99941.47;5070242;28;20061;-73
2021/06/30 05:32:14;;;;;;;28.42;25.17;;;;;;;18.30;100.00;99949.75;5078805;28;20032;-74
2021/06/30 05:34:47;;;;;;;28.25;25.48;;;;;;;18.41;100.00;99955.63;5028774;28;20132;-74
2021/06/30 05:37:19;;;;;;;25.95;23.30;;;;;;;18.38;100.00;99950.66;5057642;28;20044;-73
2021/06/30 05:39:51;;;;;;;24.20;22.00;;;;;;;18.34;100.00;99954.63;5049999;28;20543;-75
2021/06/30 05:42:23;;;;;;;26.10;22.90;;;;;;;18.37;100.00;99953.44;5068249;28;20477;-75
2021/06/30 05:44:56;;;;;;;24.17;21.95;;;;;;;18.32;100.00;99953.91;5044444;28;20098;-73
2021/06/30 05:47:28;;;;;;;24.38;21.45;;;;;;;18.37;100.00;99948.13;5072793;28;20120;-73
2021/06/30 05:50:00;;;;;;;25.98;23.33;;;;;;;18.29;100.00;99943.59;5076496;28;20142;-75
2021/06/30 05:52:33;;;;;;;25.10;22.75;;;;;;;18.34;100.00;99935.97;5080182;28;20127;-77
2021/06/30 05:55:06;;;;;;;24.90;21.95;;;;;;;18.36;100.00;99925.97;5066719;28;20057;-76
2021/06/30 05:57:39;;;;;;;24.88;22.38;;;;;;;18.28;100.00;99922.41;5066757;28;20059;-73
2021/06/30 06:00:15;;;;;;;24.40;21.98;;;;;;;18.19;100.00;99925.06;5055443;28;20064;-71
2021/06/30 06:02:48;;;;;;;23.27;20.98;;;;;;;18.26;100.00;99922.59;5063519;28;20045;-72
2021/06/30 06:05:20;;;;;;;23.48;21.05;;;;;;;18.17;100.00;99932.34;5065135;28;20056;-73
2021/06/30 06:07:52;;;;;;;22.85;20.58;;;;;;;18.18;100.00;99930.50;5061104;28;20056;-72
2021/06/30 06:10:25;;;;;;;23.77;21.38;;;;;;;18.10;100.00;99931.31;5037883;28;20449;-73
2021/06/30 06:12:57;;;;;;;25.45;21.63;;;;;;;18.06;100.00;99934.44;5068362;28;20044;-72
2021/06/30 06:15:29;;;;;;;24.92;22.52;;;;;;;18.06;100.00;99932.63;5060502;28;20370;-73
2021/06/30 06:18:02;;;;;;;25.73;23.33;;;;;;;18.12;100.00;99934.66;5065172;28;20051;-73
2021/06/30 06:20:34;;;;;;;25.77;23.17;;;;;;;18.19;100.00;99935.72;5046267;28;20056;-72
2021/06/30 06:23:07;;;;;;;22.15;20.10;;;;;;;18.25;100.00;99942.22;5041135;28;20063;-72
2021/06/30 06:25:43;;;;;;;26.75;24.08;;;;;;;18.23;100.00;99949.53;5063096;28;20040;-73
2021/06/30 06:28:16;;;;;;;24.27;21.25;;;;;;;18.30;100.00;99950.59;5046991;28;20536;-72
2021/06/30 06:30:49;;;;;;;21.77;19.67;;;;;;;18.28;100.00;99954.38;5038043;28;20055;-74
2021/06/30 06:33:22;;;;;;;22.95;20.70;;;;;;;18.33;100.00;99960.94;5058152;28;20051;-71
2021/06/30 06:35:54;;;;;;;23.30;21.17;;;;;;;18.36;100.00;99957.09;5056969;28;20507;-71
2021/06/30 06:38:27;;;;;;;25.50;22.98;;;;;;;18.36;100.00;99959.78;5031287;28;20059;-70
2021/06/30 06:40:59;;;;;;;21.02;18.95;;;;;;;18.46;100.00;99971.16;5031215;28;20057;-73
2021/06/30 06:43:33;;;;;;;22.55;20.42;;;;;;;18.43;100.00;99971.50;5051139;28;20045;-72
2021/06/30 06:46:05;;;;;;;20.92;18.73;;;;;;;18.54;100.00;99971.22;5061602;28;20053;-73
2021/06/30 06:48:38;;;;;;;23.20;20.77;;;;;;;18.46;100.00;99964.03;5066184;28;20044;-72
2021/06/30 06:51:10;;;;;;;25.08;22.55;;;;;;;18.51;100.00;99970.69;5029258;28;20527;-72
2021/06/30 06:53:42;;;;;;;24.30;21.55;;;;;;;18.49;100.00;99970.84;5066279;28;20538;-72
2021/06/30 06:56:19;;;;;;;23.65;21.45;;;;;;;18.44;100.00;99973.16;5066199;28;20060;-71
2021/06/30 06:58:52;;;;;;;19.27;17.35;;;;;;;18.41;100.00;99976.13;5065318;28;20057;-72
2021/06/30 07:01:21;;;;;;;18.08;16.30;;;;;;;18.44;100.00;99984.66;5060482;28;20396;-72
2021/06/30 07:03:54;;;;;;;18.05;16.25;;;;;;;18.59;100.00;99984.06;5065092;28;20052;-73
2021/06/30 07:06:26;;;;;;;18.30;16.50;;;;;;;18.53;100.00;99974.88;5063113;28;20055;-71
2021/06/30 07:08:58;;;;;;;20.05;16.70;;;;;;;18.45;100.00;99981.00;5063522;28;20048;-73
2021/06/30 07:12:00;;;;;;;17.23;15.45;;;;;;;18.48;100.00;99975.34;5061100;28;20132;-76
2021/06/30 07:15:54;;;;;;;;;;;;;;;;;;;;;
2021/06/30 07:18:51;;;;;;;16.25;14.60;;;;;;;18.46;100.00;99972.03;5074226;28;20066;-72
2021/06/30 07:21:23;;;;;;;15.68;14.18;;;;;;;18.54;100.00;99979.22;5065468;28;20040;-71
2021/06/30 07:23:55;;;;;;;15.75;14.35;;;;;;;18.31;100.00;99980.72;5066879;28;20124;-70
2021/06/30 07:26:28;;;;;;;15.85;14.25;;;;;;;18.42;100.00;99983.97;5066490;28;20071;-73
2021/06/30 07:29:00;;;;;;;15.85;12.73;;;;;;;18.59;100.00;99978.75;5057846;28;20056;-71
2021/06/30 07:31:32;;;;;;;14.73;12.82;;;;;;;18.51;100.00;99982.22;5042271;28;20045;-72
2021/06/30 07:34:05;;;;;;;12.18;10.82;;;;;;;18.53;100.00;99982.88;5066710;28;20400;-72
2021/06/30 07:36:37;;;;;;;17.33;12.98;;;;;;;18.54;100.00;99983.72;5064436;28;20040;-72
2021/06/30 07:39:09;;;;;;;13.05;11.85;;;;;;;18.39;100.00;99975.47;5048739;28;20049;-73
2021/06/30 07:41:41;;;;;;;15.20;13.75;;;;;;;18.45;100.00;99985.47;5060221;28;20052;-71
2021/06/30 07:44:14;;;;;;;15.02;13.63;;;;;;;18.35;100.00;99980.25;5063864;28;20056;-72
2021/06/30 07:46:41;;;;;;;15.82;14.25;;;;;;;18.45;100.00;99985.47;5055874;28;20045;-71
2021/06/30 07:49:09;;;;;;;17.27;15.52;;;;;;;18.38;100.00;99985.28;5065113;28;20056;-72
2021/06/30 07:51:36;;;;;;;16.33;14.73;;;;;;;18.43;100.00;99979.50;5059368;28;20055;-71
2021/06/30 07:54:04;;;;;;;16.73;15.00;;;;;;;18.36;100.00;99976.59;5066642;28;20047;-72
2021/06/30 07:56:34;;;;;;;15.52;13.90;;;;;;;18.32;100.00;99979.72;5067014;28;20044;-71
2021/06/30 07:59:08;;;;;;;20.10;14.38;;;;;;;18.48;100.00;99979.84;5067427;28;20512;-72
2021/06/30 08:01:35;;;;;;;17.17;15.48;;;;;;;18.36;100.00;99986.41;5022180;28;20054;-71
2021/06/30 08:04:03;;;;;;;16.23;14.73;;;;;;;18.35;100.00;99979.44;5075119;28;20528;-71
2021/06/30 08:06:31;;;;;;;15.15;13.63;;;;;;;18.37;100.00;99969.44;5059046;28;20426;-73
2021/06/30 08:08:58;;;;;;;14.32;12.93;;;;;;;18.39;100.00;99975.47;5048512;28;20050;-71
2021/06/30 08:11:26;;;;;;;16.65;15.02;;;;;;;18.37;100.00;99972.97;5061362;28;20037;-72
2021/06/30 08:13:54;;;;;;;16.05;14.43;;;;;;;18.31;100.00;99978.06;5081396;28;20044;-73
2021/06/30 08:16:21;;;;;;;16.42;14.93;;;;;;;18.30;100.00;99987.06;5061450;28;20049;-72
2021/06/30 08:18:49;;;;;;;17.00;15.30;;;;;;;18.31;100.00;99984.22;5056054;28;20052;-72
2021/06/30 08:21:16;;;;;;;14.15;12.75;;;;;;;18.37;100.00;99990.75;5045896;28;20048;-72
2021/06/30 08:23:44;;;;;;;17.02;13.00;;;;;;;18.37;100.00;99985.41;5074981;28;20055;-72
2021/06/30 08:26:12;;;;;;;14.38;13.05;;;;;;;18.31;100.00;99989.56;5068837;28;20052;-72
2021/06/30 08:28:40;;;;;;;13.68;12.07;;;;;;;18.23;100.00;99994.81;5070589;28;20158;-72
2021/06/30 08:31:07;;;;;;;13.35;11.95;;;;;;;18.26;100.00;99993.69;5073895;28;20192;-74
2021/06/30 08:33:35;;;;;;;13.18;11.98;;;;;;;18.39;100.00;99992.28;5084809;28;20121;-72
2021/06/30 08:36:04;;;;;;;13.57;12.10;;;;;;;18.36;100.00;99992.59;5064879;28;20578;-72
2021/06/30 08:38:31;;;;;;;14.70;13.32;;;;;;;18.40;100.00;100001.94;5047546;28;20046;-70
2021/06/30 08:40:59;;;;;;;14.15;12.77;;;;;;;18.39;100.00;100012.78;5069130;28;20207;-70
2021/06/30 08:43:27;;;;;;;15.00;13.68;;;;;;;18.42;100.00;100007.97;5066070;28;20500;-71
2021/06/30 08:45:54;;;;;;;11.32;10.25;;;;;;;18.46;100.00;100013.81;5068775;28;20068;-74
2021/06/30 08:48:23;;;;;;;11.30;10.30;;;;;;;18.44;100.00;100005.97;5072084;28;20040;-73
2021/06/30 08:50:52;;;;;;;12.27;11.18;;;;;;;18.45;100.00;100010.31;5034968;28;20052;-73
2021/06/30 08:53:19;;;;;;;12.98;10.95;;;;;;;18.48;100.00;100012.66;5063892;28;20060;-73
2021/06/30 08:55:47;;;;;;;12.90;11.70;;;;;;;18.39;100.00;100015.44;5044131;28;20481;-73
2021/06/30 08:58:15;;;;;;;14.80;12.30;;;;;;;18.14;100.00;100012.56;5062307;28;20382;-72
2021/06/30 09:00:43;;;;;;;12.73;10.70;;;;;;;18.10;100.00;100018.34;5063222;28;20053;-72
2021/06/30 09:03:16;;;;;;;11.40;10.30;;;;;;;18.09;100.00;100024.69;5058534;28;20509;-72
2021/06/30 09:08:53;;;;;;;12.50;11.20;;;;;;;18.10;100.00;100037.00;5049192;28;20045;-72
2021/06/30 09:11:23;;;;;;;10.57;9.57;;;;;;;18.04;100.00;100042.94;5053793;28;20052;-71
2021/06/30 09:14:22;;;;;;;16.73;11.02;;;;;;;18.08;100.00;100036.31;5065673;28;20040;-72
2021/06/30 09:16:53;;;;;;;16.73;12.52;;;;;;;18.19;100.00;100023.63;5064408;28;20578;-72
2021/06/30 09:19:20;;;;;;;12.02;10.75;;;;;;;17.99;100.00;100011.44;5060922;28;20409;-72
2021/06/30 09:21:58;;;;;;;14.93;12.05;;;;;;;17.92;100.00;100005.91;5071622;28;20055;-71
2021/06/30 09:24:25;;;;;;;12.27;9.75;;;;;;;17.97;100.00;100010.78;5071744;28;20032;-71
2021/06/30 09:26:56;;;;;;;11.60;10.05;;;;;;;18.07;100.00;100000.88;5063573;28;20050;-72
2021/06/30 09:29:24;;;;;;;16.88;11.30;;;;;;;18.08;100.00;100002.53;5072338;28;20040;-73
2021/06/30 09:31:53;;;;;;;13.25;11.70;;;;;;;18.17;100.00;99995.44;5046182;28;20056;-70
2021/06/30 09:34:24;;;;;;;12.32;10.52;;;;;;;18.21;100.00;99987.00;5068064;28;20051;-73
2021/06/30 09:36:55;;;;;;;17.30;12.55;;;;;;;18.23;100.00;99992.16;5050279;28;20052;-72
2021/06/30 09:39:23;;;;;;;15.93;12.00;;;;;;;18.30;100.00;99982.56;5070573;28;20069;-73
2021/06/30 09:42:02;;;;;;;12.63;11.38;;;;;;;18.29;100.00;99983.56;5049197;28;20051;-73
2021/06/30 09:44:31;;;;;;;13.45;11.93;;;;;;;18.43;100.00;99990.16;5060284;28;20049;-71
2021/06/30 09:46:59;;;;;;;12.63;11.32;;;;;;;18.38;100.00;99989.78;5072505;28;20047;-70
2021/06/30 09:49:26;;;;;;;11.88;10.77;;;;;;;18.39;100.00;99992.28;5063331;28;20045;-70
2021/06/30 09:52:04;;;;;;;10.80;9.45;;;;;;;18.41;100.00;99994.78;5058917;28;20058;-71
2021/06/30 09:54:32;;;;;;;9.27;8.25;;;;;;;18.40;100.00;99993.13;5046479;28;20052;-74
2021/06/30 09:57:08;;;;;;;10.55;8.60;;;;;;;18.41;100.00;99992.13;5058784;28;20056;-71
2021/06/30 09:59:37;;;;;;;7.72;6.30;;;;;;;18.35;100.00;99993.59;5056396;28;20500;-70
2021/06/30 10:02:10;;;;;;;8.30;7.50;;;;;;;18.44;100.00;99989.16;5043462;28;20048;-72
2021/06/30 10:04:42;;;;;;;9.25;7.30;;;;;;;18.45;100.00;99996.16;5046647;28;20059;-72
2021/06/30 10:07:22;;;;;;;11.55;8.95;;;;;;;18.64;100.00;99987.97;5039259;28;20576;-72
2021/06/30 10:09:52;;;;;;;6.65;6.03;;;;;;;18.69;100.00;99983.00;5065185;28;20061;-73
2021/06/30 10:12:24;;;;;;;7.22;6.50;;;;;;;18.83;100.00;99976.25;5057139;28;20049;-73
2021/06/30 10:14:52;;;;;;;11.10;6.97;;;;;;;18.82;100.00;99963.06;5068223;28;20055;-71
2021/06/30 10:17:21;;;;;;;8.90;7.95;;;;;;;18.84;100.00;99969.09;5045685;28;20052;-71
2021/06/30 10:19:51;;;;;;;8.18;7.20;;;;;;;18.82;100.00;99960.38;5053548;28;20095;-71
2021/06/30 10:22:26;;;;;;;7.10;5.93;;;;;;;18.64;100.00;99960.44;5042173;28;20036;-70
2021/06/30 10:24:55;;;;;;;6.63;6.03;;;;;;;18.56;100.00;99955.09;5064399;28;20402;-74
2021/06/30 10:27:22;;;;;;;6.25;5.65;;;;;;;18.60;100.00;99946.59;5044875;28;20047;-72
2021/06/30 10:29:54;;;;;;;5.53;5.03;;;;;;;18.38;100.00;99941.81;5046471;28;20082;-72
2021/06/30 10:32:22;;;;;;;7.93;7.13;;;;;;;18.27;100.00;99939.41;5039200;28;20040;-73
2021/06/30 10:34:53;;;;;;;9.57;8.77;;;;;;;18.42;100.00;99936.00;5072928;28;20057;-73
2021/06/30 10:37:25;;;;;;;11.77;10.57;;;;;;;18.44;100.00;99941.19;5040936;28;20048;-73
2021/06/30 10:39:54;;;;;;;11.63;10.40;;;;;;;18.36;100.00;99949.13;5065586;28;20045;-73
2021/06/30 10:42:32;;;;;;;14.13;12.77;;;;;;;18.35;100.00;99955.44;5037948;28;20465;-71
2021/06/30 10:45:17;;;;;;;14.15;12.90;;;;;;;18.22;100.00;99961.19;5039636;28;20055;-72
2021/06/30 10:47:52;;;;;;;15.95;14.35;;;;;;;18.28;100.00;99957.06;5057945;28;20074;-73
2021/06/30 10:50:20;;;;;;;13.48;12.23;;;;;;;18.30;100.00;99950.59;5018328;28;20051;-72
2021/06/30 10:52:49;;;;;;;16.25;14.63;;;;;;;18.41;100.00;99946.81;5060142;28;20055;-71
2021/06/30 10:55:32;;;;;;;14.68;13.32;;;;;;;18.39;100.00;99949.66;5060802;28;20087;-73
2021/06/30 10:58:11;;;;;;;13.57;12.18;;;;;;;18.37;100.00;99956.09;5057875;28;20424;-71
2021/06/30 11:00:38;;;;;;;12.93;11.30;;;;;;;18.37;100.00;99964.09;5061555;28;20144;-75
2021/06/30 11:03:20;;;;;;;13.05;11.40;;;;;;;18.27;100.00;99966.88;5060399;28;20053;-71
2021/06/30 11:05:49;;;;;;;12.50;11.10;;;;;;;18.42;100.00;99964.50;5058409;28;20539;-70
2021/06/30 11:08:43;;;;;;;12.25;11.05;;;;;;;18.40;100.00;99961.13;5066036;28;20052;-72
2021/06/30 11:11:12;;;;;;;13.93;12.73;;;;;;;18.47;100.00;99963.03;5061037;28;20044;-72
2021/06/30 11:13:57;;;;;;;14.13;12.45;;;;;;;18.47;100.00;99962.19;5060918;28;20055;-72
2021/06/30 11:16:36;;;;;;;15.50;13.95;;;;;;;18.13;100.00;99970.09;5060456;28;20059;-73
2021/06/30 11:19:07;;;;;;;16.02;13.52;;;;;;;18.21;100.00;99972.84;5063478;28;20059;-72
2021/06/30 11:21:53;;;;;;;14.38;12.95;;;;;;;18.20;100.00;99972.00;5060072;28;20070;-70
2021/06/30 11:24:39;;;;;;;15.30;13.85;;;;;;;18.19;100.00;99972.13;5070176;28;20040;-72
2021/06/30 11:27:12;;;;;;;16.55;15.00;;;;;;;18.15;100.00;99981.47;5064628;28;20124;-71
2021/06/30 11:29:42;;;;;;;14.73;13.32;;;;;;;18.16;100.00;99991.13;5065603;28;20074;-72
2021/06/30 11:35:04;;;;;;;14.77;13.43;;;;;;;18.11;100.00;100010.22;5058762;28;20071;-72
2021/06/30 11:37:31;;;;;;;13.73;12.43;;;;;;;18.17;100.00;100012.25;5048296;28;20051;-71
2021/06/30 11:40:04;;;;;;;16.88;14.45;;;;;;;18.07;100.00;100005.38;5067567;28;20057;-71
2021/06/30 11:42:35;;;;;;;15.93;14.40;;;;;;;18.05;100.00;100012.66;5039040;28;20055;-71